Time,TemperatureF,DewpointF,PressureIn,WindDirection,WindDirectionDegrees,WindSpeedMPH,WindSpeedGustMPH,Humidity,HourlyPrecipIn,Conditions,Clouds,dailyrainin,SoftwareType,DateUTC
2013-09-25 00:03:00,53.0,52.0,-100.00,East,85,0.0,0.0,97,0.00,,,-99.99,,2013-09-25 05:03:00,
2013-09-25 00:44:00,52.0,51.0,-100.00,SE,125,0.0,0.0,97,0.00,,,-99.99,,2013-09-25 05:44:00,
2013-09-25 00:53:00,52.0,51.0,-100.00,SE,125,0.0,0.0,97,0.00,,,-99.99,,2013-09-25 05:53:00,
2013-09-25 01:02:00,52.0,51.0,-100.00,SE,125,0.0,0.0,97,0.00,,,-99.99,,2013-09-25 06:02:00,
2013-09-25 01:42:00,50.0,50.0,-100.00,SSE,155,0.0,0.0,99,0.00,,,-99.99,,2013-09-25 06:42:00,
2013-09-25 01:52:00,50.0,50.0,-100.00,SSE,155,0.0,0.0,99,0.00,,,-99.99,,2013-09-25 06:52:00,
2013-09-25 02:01:00,50.0,50.0,-100.00,SSE,155,0.0,0.0,99,0.00,,,-99.99,,2013-09-25 07:01:00,
2013-09-25 02:10:00,48.0,48.0,-100.00,NW,320,0.0,0.0,99,0.00,,,-99.99,,2013-09-25 07:10:00,
2013-09-25 02:11:00,50.0,50.0,-100.00,SSE,155,0.0,0.0,99,0.00,,,-99.99,,2013-09-25 07:11:00,
2013-09-25 02:42:00,48.0,48.0,-100.00,NW,320,0.0,0.0,99,0.00,,,-99.99,,2013-09-25 07:42:00,
2013-09-25 02:53:00,48.0,48.0,-100.00,NW,320,0.0,0.0,99,0.00,,,-99.99,,2013-09-25 07:53:00,
2013-09-25 03:02:00,48.0,48.0,-100.00,NW,320,0.0,0.0,99,0.00,,,-99.99,,2013-09-25 08:02:00,
2013-09-25 04:43:00,47.0,47.0,-100.00,SSE,160,0.0,0.0,99,0.00,,,-99.99,,2013-09-25 09:43:00,
2013-09-25 04:54:00,47.0,47.0,-100.00,SSE,160,0.0,0.0,99,0.00,,,-99.99,,2013-09-25 09:54:00,
2013-09-25 05:04:00,47.0,47.0,-100.00,SSE,160,0.0,0.0,99,0.00,,,-99.99,,2013-09-25 10:04:00,
2013-09-25 05:43:00,46.0,46.0,-100.00,ESE,110,0.0,0.0,99,0.00,,,-99.99,,2013-09-25 10:43:00,
2013-09-25 05:53:00,46.0,46.0,-100.00,ESE,110,0.0,0.0,99,0.00,,,-99.99,,2013-09-25 10:53:00,
2013-09-25 06:02:00,46.0,46.0,-100.00,ESE,110,0.0,0.0,99,0.00,,,-99.99,,2013-09-25 11:02:00,
2013-09-25 06:43:00,45.0,45.0,-100.00,ESE,110,0.0,0.0,99,0.00,,,-99.99,,2013-09-25 11:43:00,
2013-09-25 06:52:00,45.0,45.0,-100.00,ESE,110,0.0,0.0,99,0.00,,,-99.99,,2013-09-25 11:52:00,
2013-09-25 07:02:00,45.0,45.0,-100.00,ESE,110,0.0,0.0,99,0.00,,,-99.99,,2013-09-25 12:02:00,
2013-09-25 07:10:00,45.0,45.0,-100.00,ESE,110,0.0,0.0,99,0.00,,,-99.99,,2013-09-25 12:10:00,
2013-09-25 07:42:00,45.0,45.0,-100.00,ESE,110,0.0,0.0,99,0.00,,,-99.99,,2013-09-25 12:42:00,
2013-09-25 07:52:00,45.0,45.0,-100.00,ESE,110,0.0,0.0,99,0.00,,,-99.99,,2013-09-25 12:52:00,
2013-09-25 08:02:00,45.0,45.0,-100.00,ESE,110,0.0,0.0,99,0.00,,,-99.99,,2013-09-25 13:02:00,
2013-09-25 08:42:00,45.0,45.0,-100.00,ESE,120,0.0,0.0,99,0.00,,,-99.99,,2013-09-25 13:42:00,
2013-09-25 08:52:00,45.0,45.0,-100.00,ESE,120,0.0,0.0,99,0.00,,,-99.99,,2013-09-25 13:52:00,
2013-09-25 09:02:00,45.0,45.0,-100.00,ESE,120,0.0,0.0,99,0.00,,,-99.99,,2013-09-25 14:02:00,
2013-09-25 09:43:00,49.0,49.0,-100.00,SE,130,0.0,0.0,99,0.00,,,-99.99,,2013-09-25 14:43:00,
2013-09-25 09:52:00,49.0,49.0,-100.00,SE,130,0.0,0.0,99,0.00,,,-99.99,,2013-09-25 14:52:00,
2013-09-25 10:02:00,49.0,49.0,-100.00,SE,130,0.0,0.0,99,0.00,,,-99.99,,2013-09-25 15:02:00,
2013-09-25 10:11:00,53.0,53.0,-100.00,ENE,75,0.0,0.0,99,0.00,,,-99.99,,2013-09-25 15:11:00,
2013-09-25 10:44:00,53.0,53.0,-100.00,ENE,75,0.0,0.0,99,0.00,,,-99.99,,2013-09-25 15:44:00,
2013-09-25 10:54:00,53.0,53.0,-100.00,ENE,75,0.0,0.0,99,0.00,,,-99.99,,2013-09-25 15:54:00,
2013-09-25 11:03:00,53.0,53.0,-100.00,ENE,75,0.0,0.0,99,0.00,,,-99.99,,2013-09-25 16:03:00,
2013-09-25 11:10:00,58.0,58.0,-100.00,ESE,115,0.0,0.0,99,0.00,,,-99.99,,2013-09-25 16:10:00,
2013-09-25 11:43:00,58.0,58.0,-100.00,ESE,115,0.0,0.0,99,0.00,,,-99.99,,2013-09-25 16:43:00,
2013-09-25 11:53:00,58.0,58.0,-100.00,ESE,115,0.0,0.0,99,0.00,,,-99.99,,2013-09-25 16:53:00,
2013-09-25 12:03:00,58.0,58.0,-100.00,ESE,115,0.0,0.0,99,0.00,,,-99.99,,2013-09-25 17:03:00,
2013-09-25 12:43:00,62.0,50.0,-100.00,East,100,0.0,0.0,66,0.00,,,-99.99,,2013-09-25 17:43:00,
2013-09-25 12:52:00,62.0,50.0,-100.00,East,100,0.0,0.0,66,0.00,,,-99.99,,2013-09-25 17:52:00,
2013-09-25 13:02:00,62.0,50.0,-100.00,East,100,0.0,0.0,66,0.00,,,-99.99,,2013-09-25 18:02:00,
2013-09-25 13:42:00,66.0,52.0,-100.00,SE,125,0.0,0.0,60,0.00,,,-99.99,,2013-09-25 18:42:00,
2013-09-25 13:52:00,66.0,52.0,-100.00,SE,125,0.0,0.0,60,0.00,,,-99.99,,2013-09-25 18:52:00,
2013-09-25 14:02:00,66.0,52.0,-100.00,SE,125,0.0,0.0,60,0.00,,,-99.99,,2013-09-25 19:02:00,
2013-09-25 14:42:00,65.0,49.0,-100.00,ESE,105,0.0,0.0,55,0.00,,,-99.99,,2013-09-25 19:42:00,
2013-09-25 14:52:00,65.0,49.0,-100.00,ESE,105,0.0,0.0,55,0.00,,,-99.99,,2013-09-25 19:52:00,
2013-09-25 15:03:00,65.0,49.0,-100.00,ESE,105,0.0,0.0,55,0.00,,,-99.99,,2013-09-25 20:03:00,
2013-09-25 15:10:00,67.0,49.0,-100.00,ESE,115,0.0,0.0,54,0.00,,,-99.99,,2013-09-25 20:10:00,
2013-09-25 15:43:00,67.0,49.0,-100.00,ESE,115,0.0,0.0,54,0.00,,,-99.99,,2013-09-25 20:43:00,
2013-09-25 15:52:00,67.0,49.0,-100.00,ESE,115,0.0,0.0,54,0.00,,,-99.99,,2013-09-25 20:52:00,
2013-09-25 16:01:00,67.0,49.0,-100.00,ESE,115,0.0,0.0,54,0.00,,,-99.99,,2013-09-25 21:01:00,
2013-09-25 16:11:00,67.0,49.0,-100.00,East,100,4.0,9.0,53,0.00,,,-99.99,,2013-09-25 21:11:00,
2013-09-25 16:45:00,67.0,49.0,-100.00,East,100,4.0,9.0,53,0.00,,,-99.99,,2013-09-25 21:45:00,
2013-09-25 16:55:00,67.0,49.0,-100.00,East,100,4.0,9.0,53,0.00,,,-99.99,,2013-09-25 21:55:00,
2013-09-25 17:04:00,67.0,49.0,-100.00,East,100,4.0,9.0,53,0.00,,,-99.99,,2013-09-25 22:04:00,
2013-09-25 17:11:00,66.0,49.0,-100.00,ESE,110,4.0,9.0,55,0.00,,,-99.99,,2013-09-25 22:11:00,
2013-09-25 17:43:00,66.0,49.0,-100.00,ESE,110,4.0,9.0,55,0.00,,,-99.99,,2013-09-25 22:43:00,
2013-09-25 17:53:00,66.0,49.0,-100.00,ESE,110,4.0,9.0,55,0.00,,,-99.99,,2013-09-25 22:53:00,
2013-09-25 18:03:00,66.0,49.0,-100.00,ESE,110,4.0,9.0,55,0.00,,,-99.99,,2013-09-25 23:03:00,
2013-09-25 18:42:00,63.0,49.0,-100.00,ESE,115,2.0,6.0,61,0.00,,,-99.99,,2013-09-25 23:42:00,
2013-09-25 18:53:00,63.0,49.0,-100.00,ESE,115,2.0,6.0,61,0.00,,,-99.99,,2013-09-25 23:53:00,
2013-09-25 19:02:00,63.0,49.0,-100.00,ESE,115,2.0,6.0,61,0.00,,,-99.99,,2013-09-26 00:02:00,
2013-09-25 19:42:00,57.0,53.0,-100.00,ESE,120,1.0,1.0,84,0.00,,,-99.99,,2013-09-26 00:42:00,
2013-09-25 19:52:00,57.0,53.0,-100.00,ESE,120,1.0,1.0,84,0.00,,,-99.99,,2013-09-26 00:52:00,
2013-09-25 20:02:00,57.0,53.0,-100.00,ESE,120,1.0,1.0,84,0.00,,,-99.99,,2013-09-26 01:02:00,
2013-09-25 20:42:00,55.0,53.0,-100.00,SSE,160,2.0,2.0,94,0.00,,,-99.99,,2013-09-26 01:42:00,
2013-09-25 20:52:00,55.0,53.0,-100.00,SSE,160,2.0,2.0,94,0.00,,,-99.99,,2013-09-26 01:52:00,
2013-09-25 21:02:00,55.0,53.0,-100.00,SSE,160,2.0,2.0,94,0.00,,,-99.99,,2013-09-26 02:02:00,
2013-09-25 21:10:00,53.0,52.0,-100.00,SE,140,1.0,2.0,97,0.00,,,-99.99,,2013-09-26 02:10:00,
2013-09-25 21:52:00,53.0,52.0,-100.00,SE,140,1.0,2.0,97,0.00,,,-99.99,,2013-09-26 02:52:00,
2013-09-25 22:02:00,53.0,52.0,-100.00,SE,140,1.0,2.0,97,0.00,,,-99.99,,2013-09-26 03:02:00,
2013-09-25 22:44:00,51.0,51.0,-100.00,SE,135,0.0,2.0,98,0.00,,,-99.99,,2013-09-26 03:44:00,
2013-09-25 22:55:00,51.0,51.0,-100.00,SE,135,0.0,2.0,98,0.00,,,-99.99,,2013-09-26 03:55:00,
2013-09-25 23:04:00,51.0,51.0,-100.00,SE,135,0.0,2.0,98,0.00,,,-99.99,,2013-09-26 04:04:00,
2013-09-25 23:44:00,51.0,51.0,-100.00,SE,125,2.0,3.0,99,0.00,,,-99.99,,2013-09-26 04:44:00,
2013-09-25 23:54:00,51.0,51.0,-100.00,SE,125,2.0,3.0,99,0.00,,,-99.99,,2013-09-26 04:54:00,